createdAt,value
2022-12-24T00:01:37.445Z,8.52
2022-12-24T00:04:06.412Z,13.05
2022-12-24T00:06:36.560Z,11.35
2022-12-24T00:09:05.485Z,10.88
2022-12-24T00:11:34.035Z,19.50
2022-12-24T00:14:02.647Z,16.65
2022-12-24T00:16:31.170Z,13.75
2022-12-24T00:18:59.691Z,7.50
2022-12-24T00:21:28.229Z,11.63
2022-12-24T00:23:58.115Z,3.58
2022-12-24T00:26:27.096Z,10.10
2022-12-24T00:28:55.643Z,11.65
2022-12-24T00:31:24.210Z,12.93
2022-12-24T00:33:53.354Z,12.00
2022-12-24T00:36:22.167Z,3.13
2022-12-24T00:38:50.751Z,9.27
2022-12-24T00:41:28.669Z,11.30
2022-12-24T00:43:59.573Z,6.47
2022-12-24T00:46:29.894Z,4.13
2022-12-24T00:48:58.580Z,8.68
2022-12-24T00:51:27.727Z,6.93
2022-12-24T00:53:56.359Z,13.77
2022-12-24T00:56:26.269Z,12.07
2022-12-24T00:58:55.568Z,7.03
2022-12-24T01:01:24.448Z,14.07
2022-12-24T01:04:13.150Z,7.13
2022-12-24T01:06:40.713Z,14.38
2022-12-24T01:09:09.310Z,10.57
2022-12-24T01:11:39.211Z,8.48
2022-12-24T01:14:07.746Z,11.18
2022-12-24T01:16:36.316Z,7.97
2022-12-24T01:19:05.043Z,14.27
2022-12-24T01:21:33.510Z,8.23
2022-12-24T01:24:01.812Z,4.65
2022-12-24T01:26:29.989Z,12.05
2022-12-24T01:29:00.556Z,14.77
2022-12-24T01:31:29.267Z,4.93
2022-12-24T01:33:57.558Z,6.22
2022-12-24T01:36:26.107Z,14.52
2022-12-24T01:38:54.619Z,7.07
2022-12-24T01:41:42.729Z,10.90
2022-12-24T01:44:33.193Z,9.35
2022-12-24T01:47:09.240Z,9.30
2022-12-24T01:49:41.557Z,7.63
2022-12-24T01:52:15.974Z,13.02
2022-12-24T01:54:48.995Z,13.85
2022-12-24T01:57:23.995Z,9.57
2022-12-24T01:59:59.536Z,7.57
2022-12-24T02:02:29.396Z,8.50
2022-12-24T02:05:03.891Z,11.82
2022-12-24T02:07:32.295Z,10.20
2022-12-24T02:10:02.330Z,9.65
2022-12-24T02:12:33.578Z,4.97
2022-12-24T02:15:04.057Z,8.90
2022-12-24T02:17:40.903Z,2.38
2022-12-24T02:20:49.138Z,4.65
2022-12-24T02:24:01.788Z,7.53
2022-12-24T02:26:46.958Z,2.40
2022-12-24T02:29:33.770Z,5.45
2022-12-24T02:32:07.219Z,7.07
2022-12-24T02:34:40.167Z,4.60
2022-12-24T02:37:15.968Z,13.57
2022-12-24T02:39:48.965Z,3.88
2022-12-24T02:42:20.138Z,2.97
2022-12-24T02:44:55.444Z,11.97
2022-12-24T02:47:29.776Z,8.18
2022-12-24T02:50:01.709Z,5.30
2022-12-24T02:52:32.524Z,2.92
2022-12-24T02:55:03.614Z,9.85
2022-12-24T02:57:44.926Z,1.63
2022-12-24T03:00:16.542Z,3.08
2022-12-24T03:03:07.679Z,0.93
2022-12-24T03:05:44.775Z,11.82
2022-12-24T03:08:23.322Z,7.47
2022-12-24T03:10:58.093Z,6.90
2022-12-24T03:13:28.258Z,10.87
2022-12-24T03:15:57.042Z,2.80
2022-12-24T03:18:29.507Z,2.53
2022-12-24T03:21:02.919Z,14.07
2022-12-24T03:23:31.616Z,9.10
2022-12-24T03:26:05.689Z,1.83
2022-12-24T03:28:34.722Z,5.25
2022-12-24T03:31:04.984Z,4.82
2022-12-24T03:33:34.841Z,6.15
2022-12-24T03:36:03.258Z,5.25
2022-12-24T03:38:31.510Z,2.95
2022-12-24T03:41:01.903Z,3.90
2022-12-24T03:43:30.480Z,2.80
2022-12-24T03:45:58.718Z,2.72
2022-12-24T03:48:32.537Z,9.48
2022-12-24T03:51:02.947Z,8.02
2022-12-24T03:53:31.557Z,7.13
2022-12-24T03:56:00.468Z,8.32
2022-12-24T03:58:28.936Z,11.18
2022-12-24T04:00:57.507Z,3.28
2022-12-24T04:03:26.051Z,7.10
2022-12-24T04:06:04.090Z,8.95
2022-12-24T04:08:33.042Z,7.32
2022-12-24T04:11:07.771Z,4.20
2022-12-24T04:13:38.270Z,2.40
2022-12-24T04:16:08.796Z,7.13
2022-12-24T04:18:38.413Z,8.52
2022-12-24T04:21:09.308Z,2.22
2022-12-24T04:23:39.527Z,2.83
2022-12-24T04:26:10.142Z,3.60
2022-12-24T04:28:39.427Z,5.57
2022-12-24T04:31:12.264Z,9.95
2022-12-24T04:33:40.818Z,6.35
2022-12-24T04:36:13.936Z,8.45
2022-12-24T04:38:42.216Z,6.30
2022-12-24T04:41:20.742Z,6.72
2022-12-24T04:43:52.213Z,3.45
2022-12-24T04:46:23.107Z,1.02
2022-12-24T04:48:53.597Z,7.75
2022-12-24T04:51:23.828Z,4.30
2022-12-24T04:53:52.632Z,11.38
2022-12-24T04:56:22.909Z,6.57
2022-12-24T04:58:52.231Z,7.88
2022-12-24T05:01:23.576Z,1.70
2022-12-24T05:03:52.773Z,5.78
2022-12-24T05:06:26.019Z,5.22
2022-12-24T05:08:56.771Z,2.83
2022-12-24T05:11:25.790Z,2.15
2022-12-24T05:13:54.469Z,4.20
2022-12-24T05:16:24.827Z,5.03
2022-12-24T05:18:54.213Z,4.57
2022-12-24T05:21:27.361Z,8.43
2022-12-24T05:24:13.493Z,7.87
2022-12-24T05:26:45.524Z,4.57
2022-12-24T05:29:14.299Z,3.05
2022-12-24T05:31:45.246Z,10.02
2022-12-24T05:34:14.944Z,1.73
2022-12-24T05:36:45.603Z,8.43
2022-12-24T05:39:16.886Z,4.63
2022-12-24T05:41:46.533Z,6.95
2022-12-24T05:44:16.247Z,4.53
2022-12-24T05:46:45.359Z,4.30
2022-12-24T05:49:15.260Z,7.18
2022-12-24T05:51:45.194Z,2.00
2022-12-24T05:54:14.014Z,6.80
2022-12-24T05:56:42.266Z,4.50
2022-12-24T05:59:10.491Z,3.53
2022-12-24T06:01:38.789Z,4.60
2022-12-24T06:04:07.161Z,5.70
2022-12-24T06:06:35.614Z,8.83
2022-12-24T06:09:05.589Z,9.15
2022-12-24T06:11:33.776Z,6.85
2022-12-24T06:14:01.944Z,5.17
2022-12-24T06:16:30.225Z,5.43
2022-12-24T06:18:58.499Z,5.82
2022-12-24T06:21:27.084Z,7.38
2022-12-24T06:23:55.570Z,5.77
2022-12-24T06:26:25.429Z,5.70
2022-12-24T06:28:54.184Z,4.78
2022-12-24T06:31:24.445Z,6.05
2022-12-24T06:33:53.856Z,5.43
2022-12-24T06:36:25.349Z,4.70
2022-12-24T06:38:55.286Z,6.22
2022-12-24T06:41:25.362Z,4.43
2022-12-24T06:43:54.735Z,7.65
2022-12-24T06:46:23.749Z,7.00
2022-12-24T06:48:52.315Z,7.15
2022-12-24T06:51:21.107Z,5.20
2022-12-24T06:53:50.575Z,4.50
2022-12-24T06:56:20.681Z,1.33
2022-12-24T06:58:50.468Z,6.90
2022-12-24T07:01:21.135Z,8.35
2022-12-24T07:03:49.809Z,5.57
2022-12-24T07:06:25.141Z,5.35
2022-12-24T07:08:53.552Z,8.95
2022-12-24T07:11:22.620Z,8.13
2022-12-24T07:13:52.409Z,3.10
2022-12-24T07:16:20.759Z,5.80
2022-12-24T07:18:49.910Z,7.53
2022-12-24T07:21:18.130Z,6.43
2022-12-24T07:23:46.319Z,7.82
2022-12-24T07:26:14.530Z,6.33
2022-12-24T07:28:43.041Z,9.70
2022-12-24T07:31:13.142Z,8.67
2022-12-24T07:33:41.751Z,9.80
2022-12-24T07:36:15.548Z,8.17
2022-12-24T07:38:44.031Z,9.37
2022-12-24T07:41:12.674Z,8.30
2022-12-24T07:43:41.749Z,7.03
2022-12-24T07:46:10.374Z,1.95
2022-12-24T07:48:40.556Z,6.35
2022-12-24T07:51:09.421Z,8.20
2022-12-24T07:53:37.971Z,10.32
2022-12-24T07:56:12.447Z,9.20
2022-12-24T07:58:41.509Z,9.10
2022-12-24T08:01:10.257Z,4.03
2022-12-24T08:03:40.378Z,6.25
2022-12-24T08:06:09.383Z,6.70
2022-12-24T08:08:38.199Z,7.50
2022-12-24T08:11:08.720Z,5.95
2022-12-24T08:13:37.472Z,9.52
2022-12-24T08:16:06.472Z,11.27
2022-12-24T08:18:35.069Z,7.30
2022-12-24T08:21:08.041Z,1.00
2022-12-24T08:23:36.661Z,0.85
2022-12-24T08:26:07.869Z,4.60
2022-12-24T08:28:36.585Z,4.53
2022-12-24T08:31:05.653Z,1.20
2022-12-24T08:33:34.304Z,4.05
2022-12-24T08:36:04.761Z,4.10
2022-12-24T08:38:33.676Z,3.90
2022-12-24T08:41:02.172Z,3.80
2022-12-24T08:43:30.999Z,3.72
2022-12-24T08:46:04.715Z,9.32
2022-12-24T08:48:33.993Z,5.32
2022-12-24T08:51:06.866Z,2.65
2022-12-24T08:53:35.347Z,2.55
2022-12-24T08:56:04.914Z,0.55
2022-12-24T08:58:33.892Z,5.23
2022-12-24T09:01:02.771Z,6.77
2022-12-24T09:03:31.128Z,3.42
2022-12-24T09:05:59.430Z,8.80
2022-12-24T09:08:29.097Z,4.60
2022-12-24T09:10:57.331Z,7.93
2022-12-24T09:13:25.492Z,2.63
2022-12-24T09:15:57.174Z,1.55
2022-12-24T09:18:26.180Z,8.93
2022-12-24T09:21:01.322Z,11.43
2022-12-24T09:23:31.655Z,7.90
2022-12-24T09:26:00.190Z,10.32
2022-12-24T09:28:28.660Z,9.18
2022-12-24T09:30:59.767Z,9.38
2022-12-24T09:33:28.879Z,8.70
2022-12-24T09:35:57.485Z,11.07
2022-12-24T09:38:26.244Z,9.60
2022-12-24T09:41:01.151Z,5.43
2022-12-24T09:43:35.167Z,8.38
2022-12-24T09:46:10.994Z,7.13
2022-12-24T09:48:44.837Z,8.93
2022-12-24T09:51:22.451Z,11.95
2022-12-24T09:53:55.829Z,7.82
2022-12-24T09:56:31.297Z,4.85
2022-12-24T09:59:02.257Z,9.15
2022-12-24T10:01:32.790Z,8.68
2022-12-24T10:04:05.108Z,11.43
2022-12-24T10:06:39.632Z,7.25
2022-12-24T10:09:18.164Z,11.05
2022-12-24T10:11:55.166Z,11.70
2022-12-24T10:14:48.228Z,12.20
2022-12-24T10:17:31.764Z,9.43
2022-12-24T10:20:14.150Z,2.97
2022-12-24T10:22:54.767Z,11.43
2022-12-24T10:25:27.212Z,11.18
2022-12-24T10:28:00.601Z,9.25
2022-12-24T10:30:30.057Z,10.48
2022-12-24T10:32:58.606Z,6.65
2022-12-24T10:35:30.428Z,9.17
2022-12-24T10:37:59.019Z,6.70
2022-12-24T10:40:36.812Z,6.45
2022-12-24T10:43:14.979Z,10.80
2022-12-24T10:45:47.252Z,4.82
2022-12-24T10:48:23.897Z,14.10
2022-12-24T10:51:00.568Z,7.72
2022-12-24T10:53:45.585Z,16.65
2022-12-24T10:56:17.335Z,7.13
2022-12-24T10:58:52.233Z,12.60
2022-12-24T11:01:21.061Z,13.05
2022-12-24T11:04:02.716Z,10.90
2022-12-24T11:06:31.284Z,14.48
2022-12-24T11:09:21.765Z,11.40
2022-12-24T11:11:50.862Z,12.75
2022-12-24T11:14:22.273Z,1.73
2022-12-24T11:16:53.632Z,9.25
2022-12-24T11:19:31.061Z,6.72
2022-12-24T11:22:05.912Z,7.83
2022-12-24T11:24:36.595Z,2.23
2022-12-24T11:27:25.914Z,11.82
2022-12-24T11:30:22.215Z,8.02
2022-12-24T11:32:52.515Z,10.23
2022-12-24T11:35:22.859Z,5.38
2022-12-24T11:38:10.221Z,10.50
2022-12-24T11:40:41.511Z,15.75
2022-12-24T11:43:17.018Z,9.43
2022-12-24T11:45:52.978Z,9.05
2022-12-24T11:48:29.596Z,9.15
2022-12-24T11:50:59.778Z,12.70
2022-12-24T11:53:36.026Z,7.93
2022-12-24T11:56:09.490Z,13.02
2022-12-24T11:58:43.632Z,13.27
2022-12-24T12:01:21.381Z,6.03
2022-12-24T12:03:52.613Z,10.57
2022-12-24T12:06:30.685Z,11.07
2022-12-24T12:09:03.582Z,6.45
2022-12-24T12:11:33.793Z,9.77
2022-12-24T12:14:04.512Z,9.52
2022-12-24T12:17:04.090Z,9.20
2022-12-24T12:19:40.056Z,7.60
2022-12-24T12:22:17.101Z,13.50
2022-12-24T12:24:52.115Z,4.85
2022-12-24T12:27:28.195Z,8.50
2022-12-24T12:30:02.841Z,11.88
2022-12-24T12:32:43.241Z,15.15
2022-12-24T12:35:22.950Z,11.90
2022-12-24T12:37:58.963Z,5.03
2022-12-24T12:40:49.194Z,2.25
2022-12-24T12:43:32.624Z,10.27
2022-12-24T12:46:10.905Z,8.82
2022-12-24T12:49:03.105Z,9.15
2022-12-24T12:51:38.965Z,3.33
2022-12-24T12:54:28.686Z,5.70
2022-12-24T12:57:02.406Z,10.20
2022-12-24T12:59:38.106Z,7.68
2022-12-24T13:02:26.402Z,6.77
2022-12-24T13:05:43.343Z,12.05
2022-12-24T13:08:27.558Z,9.20
2022-12-24T13:11:25.253Z,8.43
2022-12-24T13:14:36.312Z,12.27
2022-12-24T13:17:35.357Z,12.18
2022-12-24T13:20:21.750Z,8.77
2022-12-24T13:22:57.690Z,10.05
2022-12-24T13:25:32.667Z,10.30
2022-12-24T13:28:16.907Z,9.27
2022-12-24T13:30:45.786Z,9.25
2022-12-24T13:33:15.358Z,12.10
2022-12-24T13:36:03.062Z,5.15
2022-12-24T13:38:50.267Z,5.40
2022-12-24T13:41:57.540Z,11.52
2022-12-24T13:44:32.941Z,8.30
2022-12-24T13:47:05.039Z,10.02
2022-12-24T13:49:37.155Z,3.53
2022-12-24T13:52:26.272Z,7.70
2022-12-24T13:55:16.833Z,6.43
2022-12-24T13:57:58.585Z,4.73
2022-12-24T14:00:41.025Z,5.82
2022-12-24T14:03:24.785Z,6.72
2022-12-24T14:05:56.241Z,9.13
2022-12-24T14:08:36.112Z,7.15
2022-12-24T14:11:09.001Z,9.13
2022-12-24T14:14:09.600Z,7.75
2022-12-24T14:16:50.595Z,1.63
2022-12-24T14:19:23.808Z,6.88
2022-12-24T14:22:02.217Z,9.50
2022-12-24T14:24:35.476Z,7.00
2022-12-24T14:27:16.545Z,7.63
2022-12-24T14:29:51.808Z,4.43
2022-12-24T14:32:20.703Z,1.70
2022-12-24T14:35:05.698Z,4.72
2022-12-24T14:37:34.870Z,5.60
2022-12-24T14:40:05.424Z,1.20
2022-12-24T14:42:43.814Z,6.55
2022-12-24T14:45:24.079Z,0.80
2022-12-24T14:48:00.783Z,5.43
2022-12-24T14:50:52.745Z,4.20
2022-12-24T14:53:34.088Z,1.90
2022-12-24T14:56:14.927Z,5.22
2022-12-24T14:58:44.880Z,0.70
2022-12-24T15:01:23.658Z,2.13
2022-12-24T15:04:03.109Z,1.10
2022-12-24T15:06:34.557Z,0.60
2022-12-24T15:09:03.173Z,0.65
2022-12-24T15:11:33.287Z,1.70
2022-12-24T15:14:02.142Z,1.50
2022-12-24T15:16:33.971Z,2.97
2022-12-24T15:19:06.914Z,1.33
2022-12-24T15:21:41.376Z,1.90
2022-12-24T15:24:25.994Z,1.17
2022-12-24T15:26:56.463Z,4.15
2022-12-24T15:29:27.698Z,0.73
2022-12-24T15:31:58.586Z,0.50
2022-12-24T15:34:36.120Z,1.00
2022-12-24T15:37:08.531Z,0.68
2022-12-24T15:39:37.510Z,0.75
2022-12-24T15:42:14.423Z,0.70
2022-12-24T15:44:46.132Z,0.40
2022-12-24T15:47:20.657Z,0.93
2022-12-24T15:49:53.077Z,1.42
2022-12-24T15:52:25.038Z,1.95
2022-12-24T15:54:58.032Z,0.70
2022-12-24T15:57:32.716Z,1.50
2022-12-24T16:00:02.867Z,1.13
2022-12-24T16:02:38.445Z,0.50
2022-12-24T16:05:30.563Z,3.10
2022-12-24T16:08:27.017Z,0.70
2022-12-24T16:11:19.176Z,1.10
2022-12-24T16:14:06.517Z,3.28
2022-12-24T16:16:38.119Z,3.80
2022-12-24T16:19:08.504Z,3.53
2022-12-24T16:21:39.519Z,2.50
2022-12-24T16:24:16.702Z,1.20
2022-12-24T16:26:45.251Z,0.50
2022-12-24T16:29:15.481Z,0.77
2022-12-24T16:31:47.917Z,0.98
2022-12-24T16:34:17.596Z,1.20
2022-12-24T16:36:47.548Z,1.38
2022-12-24T16:39:28.474Z,0.77
2022-12-24T16:42:17.302Z,1.40
2022-12-24T16:44:47.831Z,2.53
2022-12-24T16:47:19.339Z,1.27
2022-12-24T16:49:48.077Z,0.60
2022-12-24T16:52:21.473Z,0.70
2022-12-24T16:54:49.982Z,0.75
2022-12-24T16:57:18.969Z,1.67
2022-12-24T16:59:49.369Z,0.63
2022-12-24T17:02:21.194Z,0.70
2022-12-24T17:04:50.204Z,1.60
2022-12-24T17:07:20.897Z,0.60
2022-12-24T17:09:49.586Z,0.80
2022-12-24T17:12:18.159Z,0.82
2022-12-24T17:14:48.097Z,1.05
2022-12-24T17:17:23.687Z,1.58
2022-12-24T17:19:52.205Z,2.30
2022-12-24T17:22:20.939Z,1.40
2022-12-24T17:24:49.540Z,0.98
2022-12-24T17:27:18.227Z,1.17
2022-12-24T17:29:48.137Z,1.70
2022-12-24T17:32:16.890Z,1.70
2022-12-24T17:34:45.427Z,1.55
2022-12-24T17:37:14.068Z,1.00
2022-12-24T17:39:42.575Z,1.08
2022-12-24T17:42:11.139Z,1.17
2022-12-24T17:44:39.650Z,1.00
2022-12-24T17:47:09.483Z,1.80
2022-12-24T17:49:38.266Z,1.08
2022-12-24T17:52:06.889Z,1.80
2022-12-24T17:54:35.426Z,0.80
2022-12-24T17:57:03.934Z,0.95
2022-12-24T17:59:33.148Z,0.80
2022-12-24T18:02:01.737Z,1.00
2022-12-24T18:04:31.669Z,0.93
2022-12-24T18:07:02.801Z,1.00
2022-12-24T18:09:31.726Z,1.33
2022-12-24T18:12:00.944Z,0.95
2022-12-24T18:14:29.618Z,1.00
2022-12-24T18:16:58.116Z,1.08
2022-12-24T18:19:26.795Z,1.00
2022-12-24T18:21:56.989Z,1.20
2022-12-24T18:24:25.474Z,2.60
2022-12-24T18:26:55.165Z,3.60
2022-12-24T18:29:23.666Z,2.08
2022-12-24T18:31:52.735Z,1.30
2022-12-24T18:34:21.428Z,1.85
2022-12-24T18:36:55.130Z,1.30
2022-12-24T18:39:25.357Z,1.15
2022-12-24T18:41:53.870Z,1.60
2022-12-24T18:44:25.436Z,0.97
2022-12-24T18:46:54.991Z,1.50
2022-12-24T18:49:23.512Z,1.40
2022-12-24T18:51:52.005Z,2.93
2022-12-24T18:54:20.480Z,2.95
2022-12-24T18:56:51.877Z,1.33
2022-12-24T18:59:20.443Z,1.35
2022-12-24T19:01:49.197Z,1.50
2022-12-24T19:04:18.003Z,1.15
2022-12-24T19:06:52.651Z,1.38
2022-12-24T19:09:21.770Z,1.20
2022-12-24T19:11:51.604Z,1.10
2022-12-24T19:14:20.882Z,1.35
2022-12-24T19:16:49.457Z,1.30
2022-12-24T19:19:18.809Z,1.45
2022-12-24T19:21:47.339Z,2.10
2022-12-24T19:24:15.837Z,1.50
2022-12-24T19:26:45.085Z,1.08
2022-12-24T19:29:14.950Z,0.90
2022-12-24T19:31:47.154Z,1.60
2022-12-24T19:34:16.127Z,1.10
2022-12-24T19:36:44.683Z,3.42
2022-12-24T19:39:13.156Z,1.75
2022-12-24T19:41:41.787Z,1.80
2022-12-24T19:44:12.178Z,1.80
2022-12-24T19:46:42.035Z,1.00
2022-12-24T19:49:13.079Z,1.17
2022-12-24T19:51:41.572Z,1.75
2022-12-24T19:54:18.709Z,3.00
2022-12-24T19:56:47.928Z,1.30
2022-12-24T19:59:16.446Z,1.33
2022-12-24T20:01:47.181Z,2.85
2022-12-24T20:04:18.379Z,1.30
2022-12-24T20:06:46.939Z,1.10
2022-12-24T20:09:15.396Z,6.47
2022-12-24T20:11:43.969Z,3.22
2022-12-24T20:14:13.394Z,5.50
2022-12-24T20:16:42.071Z,2.55
2022-12-24T20:19:15.890Z,3.70
2022-12-24T20:21:44.380Z,2.33
2022-12-24T20:24:12.977Z,3.13
2022-12-24T20:26:41.557Z,2.13
2022-12-24T20:29:11.718Z,5.70
2022-12-24T20:31:40.703Z,1.13
2022-12-24T20:34:09.538Z,0.80
2022-12-24T20:36:40.793Z,1.63
2022-12-24T20:39:09.399Z,1.03
2022-12-24T20:41:38.155Z,1.25
2022-12-24T20:44:07.031Z,3.05
2022-12-24T20:46:35.713Z,1.95
2022-12-24T20:49:05.197Z,2.53
2022-12-24T20:51:33.829Z,3.13
2022-12-24T20:54:03.665Z,1.77
2022-12-24T20:56:32.674Z,1.33
2022-12-24T20:59:01.823Z,1.35
2022-12-24T21:01:31.003Z,4.60
2022-12-24T21:04:05.556Z,2.20
2022-12-24T21:06:34.914Z,2.72
2022-12-24T21:09:06.790Z,1.63
2022-12-24T21:11:53.289Z,5.65
2022-12-24T21:14:23.536Z,1.40
2022-12-24T21:16:52.910Z,6.80
2022-12-24T21:19:23.917Z,4.32
2022-12-24T21:21:52.732Z,5.70
2022-12-24T21:24:22.597Z,1.85
2022-12-24T21:26:51.093Z,1.30
2022-12-24T21:29:19.548Z,1.30
2022-12-24T21:31:48.322Z,2.40
2022-12-24T21:34:16.939Z,1.40
2022-12-24T21:36:45.435Z,7.60
2022-12-24T21:39:13.941Z,4.53
2022-12-24T21:41:43.783Z,2.58
2022-12-24T21:44:12.273Z,5.07
2022-12-24T21:46:40.783Z,3.67
2022-12-24T21:49:29.438Z,3.72
2022-12-24T21:51:59.175Z,7.20
2022-12-24T21:54:28.432Z,5.90
2022-12-24T21:57:18.547Z,3.72
2022-12-24T21:59:47.414Z,4.55
2022-12-24T22:02:17.063Z,3.70
2022-12-24T22:04:46.113Z,3.55
2022-12-24T22:07:39.775Z,6.25
2022-12-24T22:10:26.814Z,1.80
2022-12-24T22:12:56.999Z,2.47
2022-12-24T22:15:25.568Z,4.83
2022-12-24T22:17:54.057Z,2.97
2022-12-24T22:20:22.524Z,1.55
2022-12-24T22:22:51.105Z,4.63
2022-12-24T22:25:19.910Z,8.43
2022-12-24T22:27:48.414Z,2.35
2022-12-24T22:30:18.392Z,1.98
2022-12-24T22:32:46.923Z,4.97
2022-12-24T22:35:15.615Z,1.45
2022-12-24T22:37:44.156Z,4.20
2022-12-24T22:40:13.875Z,3.53
2022-12-24T22:42:42.394Z,5.75
2022-12-24T22:45:18.422Z,7.95
2022-12-24T22:47:51.816Z,3.05
2022-12-24T22:50:20.424Z,1.40
2022-12-24T22:52:48.943Z,3.17
2022-12-24T22:55:17.605Z,2.85
2022-12-24T22:57:46.134Z,1.67
2022-12-24T23:00:18.324Z,2.40
2022-12-24T23:02:46.944Z,6.40
2022-12-24T23:05:17.877Z,7.60
2022-12-24T23:07:46.424Z,3.63
2022-12-24T23:10:14.913Z,3.47
2022-12-24T23:13:00.950Z,2.38
2022-12-24T23:15:29.493Z,1.75
2022-12-24T23:17:58.011Z,2.53
2022-12-24T23:20:28.601Z,3.87
2022-12-24T23:22:57.316Z,3.55
2022-12-24T23:25:26.289Z,1.45
2022-12-24T23:27:54.799Z,2.47
2022-12-24T23:30:23.254Z,5.03
2022-12-24T23:32:51.764Z,3.20
2022-12-24T23:35:20.271Z,3.53
2022-12-24T23:37:50.115Z,1.27
2022-12-24T23:40:18.624Z,1.95
2022-12-24T23:42:47.176Z,2.00
2022-12-24T23:45:15.729Z,1.40
2022-12-24T23:47:44.285Z,1.30
2022-12-24T23:50:13.122Z,2.78
2022-12-24T23:52:41.653Z,1.90
2022-12-24T23:55:11.568Z,1.27
2022-12-24T23:57:40.066Z,2.40
